sensor_id;sensor_type;location;lat;lon;timestamp;pressure;altitude;pressure_sealevel;temperature;humidity
55271;BME280;41132;47.162;9.470;2022-09-17T00:01:25;96216.78;;;11.11;100.00
55271;BME280;41132;47.162;9.470;2022-09-17T00:03:54;96212.34;;;11.11;100.00
55271;BME280;41132;47.162;9.470;2022-09-17T00:06:20;96218.75;;;11.00;100.00
55271;BME280;41132;47.162;9.470;2022-09-17T00:08:46;96215.47;;;10.82;100.00
55271;BME280;41132;47.162;9.470;2022-09-17T00:11:14;96213.66;;;11.07;100.00
55271;BME280;41132;47.162;9.470;2022-09-17T00:13:41;96221.69;;;10.89;100.00
55271;BME280;41132;47.162;9.470;2022-09-17T00:16:06;96217.25;;;10.65;100.00
55271;BME280;41132;47.162;9.470;2022-09-17T00:18:32;96218.91;;;10.91;100.00
55271;BME280;41132;47.162;9.470;2022-09-17T00:21:00;96217.75;;;11.10;100.00
55271;BME280;41132;47.162;9.470;2022-09-17T00:23:27;96212.84;;;10.98;100.00
55271;BME280;41132;47.162;9.470;2022-09-17T00:25:53;96211.19;;;10.89;100.00
55271;BME280;41132;47.162;9.470;2022-09-17T00:28:20;96205.63;;;11.08;100.00
55271;BME280;41132;47.162;9.470;2022-09-17T00:30:46;96202.34;;;10.90;100.00
55271;BME280;41132;47.162;9.470;2022-09-17T00:33:15;96198.41;;;10.78;100.00
55271;BME280;41132;47.162;9.470;2022-09-17T00:35:42;96205.94;;;10.89;100.00
55271;BME280;41132;47.162;9.470;2022-09-17T00:38:07;96198.72;;;10.91;100.00
55271;BME280;41132;47.162;9.470;2022-09-17T00:40:33;96200.22;;;10.77;100.00
55271;BME280;41132;47.162;9.470;2022-09-17T00:42:59;96206.28;;;10.86;100.00
55271;BME280;41132;47.162;9.470;2022-09-17T00:45:25;96199.38;;;10.85;100.00
55271;BME280;41132;47.162;9.470;2022-09-17T00:48:02;96198.06;;;10.97;100.00
55271;BME280;41132;47.162;9.470;2022-09-17T00:50:32;96194.44;;;10.98;100.00
55271;BME280;41132;47.162;9.470;2022-09-17T00:53:02;96198.38;;;10.94;100.00
55271;BME280;41132;47.162;9.470;2022-09-17T00:57:58;96200.53;;;10.99;100.00
55271;BME280;41132;47.162;9.470;2022-09-17T01:00:26;96191.69;;;10.75;100.00
55271;BME280;41132;47.162;9.470;2022-09-17T01:02:52;96189.03;;;10.67;100.00
55271;BME280;41132;47.162;9.470;2022-09-17T01:05:27;96198.06;;;10.48;100.00
55271;BME280;41132;47.162;9.470;2022-09-17T01:10:53;96195.09;;;10.92;100.00
55271;BME280;41132;47.162;9.470;2022-09-17T01:16:43;96200.38;;;10.68;100.00
55271;BME280;41132;47.162;9.470;2022-09-17T01:19:41;96212.50;;;10.69;100.00
55271;BME280;41132;47.162;9.470;2022-09-17T01:27:57;96227.06;;;10.38;100.00
55271;BME280;41132;47.162;9.470;2022-09-17T01:30:51;96227.59;;;10.66;100.00
55271;BME280;41132;47.162;9.470;2022-09-17T01:38:43;96224.00;;;10.92;100.00
55271;BME280;41132;47.162;9.470;2022-09-17T01:41:40;96230.88;;;11.10;100.00
55271;BME280;41132;47.162;9.470;2022-09-17T01:44:27;96222.69;;;11.04;100.00
55271;BME280;41132;47.162;9.470;2022-09-17T01:47:17;96227.28;;;11.02;100.00
55271;BME280;41132;47.162;9.470;2022-09-17T01:49:45;96231.06;;;10.92;100.00
55271;BME280;41132;47.162;9.470;2022-09-17T01:52:13;96231.38;;;10.89;100.00
55271;BME280;41132;47.162;9.470;2022-09-17T01:54:43;96227.78;;;11.06;100.00
55271;BME280;41132;47.162;9.470;2022-09-17T01:57:32;96235.31;;;11.01;100.00
55271;BME280;41132;47.162;9.470;2022-09-17T02:05:39;96237.28;;;10.99;100.00
55271;BME280;41132;47.162;9.470;2022-09-17T02:08:19;96213.47;;;10.92;100.00
55271;BME280;41132;47.162;9.470;2022-09-17T02:11:10;96225.97;;;10.98;100.00
55271;BME280;41132;47.162;9.470;2022-09-17T02:16:05;96216.78;;;10.94;100.00
55271;BME280;41132;47.162;9.470;2022-09-17T02:18:54;96224.97;;;11.07;100.00
55271;BME280;41132;47.162;9.470;2022-09-17T02:21:40;96215.28;;;10.92;100.00
55271;BME280;41132;47.162;9.470;2022-09-17T02:24:18;96222.03;;;10.70;100.00
55271;BME280;41132;47.162;9.470;2022-09-17T02:29:34;96218.44;;;10.79;100.00
55271;BME280;41132;47.162;9.470;2022-09-17T02:32:01;96224.97;;;10.75;100.00
55271;BME280;41132;47.162;9.470;2022-09-17T02:34:28;96232.38;;;10.79;100.00
55271;BME280;41132;47.162;9.470;2022-09-17T02:36:56;96238.56;;;10.62;100.00
55271;BME280;41132;47.162;9.470;2022-09-17T02:39:23;96248.56;;;10.50;100.00
55271;BME280;41132;47.162;9.470;2022-09-17T02:44:56;96241.66;;;10.41;100.00
55271;BME280;41132;47.162;9.470;2022-09-17T02:47:49;96246.66;;;10.18;100.00
55271;BME280;41132;47.162;9.470;2022-09-17T02:53:33;96240.66;;;10.34;100.00
55271;BME280;41132;47.162;9.470;2022-09-17T03:01:42;96236.94;;;10.02;100.00
55271;BME280;41132;47.162;9.470;2022-09-17T03:04:11;96224.41;;;9.79;100.00
55271;BME280;41132;47.162;9.470;2022-09-17T03:06:40;96225.16;;;9.72;100.00
55271;BME280;41132;47.162;9.470;2022-09-17T03:09:07;96223.56;;;9.79;100.00
55271;BME280;41132;47.162;9.470;2022-09-17T03:11:32;96219.63;;;9.75;100.00
55271;BME280;41132;47.162;9.470;2022-09-17T03:13:57;96223.16;;;10.08;100.00
55271;BME280;41132;47.162;9.470;2022-09-17T03:16:23;96234.09;;;10.30;100.00
55271;BME280;41132;47.162;9.470;2022-09-17T03:18:48;96232.28;;;10.30;100.00
55271;BME280;41132;47.162;9.470;2022-09-17T03:21:14;96235.47;;;10.58;100.00
55271;BME280;41132;47.162;9.470;2022-09-17T03:23:39;96238.38;;;10.39;100.00
55271;BME280;41132;47.162;9.470;2022-09-17T03:26:05;96237.66;;;10.20;100.00
55271;BME280;41132;47.162;9.470;2022-09-17T03:28:31;96244.25;;;10.33;100.00
55271;BME280;41132;47.162;9.470;2022-09-17T03:30:56;96244.84;;;10.18;100.00
55271;BME280;41132;47.162;9.470;2022-09-17T03:33:21;96247.88;;;10.32;100.00
55271;BME280;41132;47.162;9.470;2022-09-17T03:35:47;96247.88;;;10.40;100.00
55271;BME280;41132;47.162;9.470;2022-09-17T03:38:13;96245.91;;;10.42;100.00
55271;BME280;41132;47.162;9.470;2022-09-17T03:40:38;96246.50;;;10.28;100.00
55271;BME280;41132;47.162;9.470;2022-09-17T03:43:05;96242.56;;;10.23;100.00
55271;BME280;41132;47.162;9.470;2022-09-17T03:45:31;96258.59;;;10.12;100.00
55271;BME280;41132;47.162;9.470;2022-09-17T03:47:56;96257.16;;;10.26;100.00
55271;BME280;41132;47.162;9.470;2022-09-17T03:50:21;96251.38;;;10.06;100.00
55271;BME280;41132;47.162;9.470;2022-09-17T03:52:47;96258.28;;;10.15;100.00
55271;BME280;41132;47.162;9.470;2022-09-17T03:55:12;96257.91;;;10.02;100.00
55271;BME280;41132;47.162;9.470;2022-09-17T03:57:38;96267.97;;;10.23;100.00
55271;BME280;41132;47.162;9.470;2022-09-17T04:00:04;96262.81;;;10.31;100.00
55271;BME280;41132;47.162;9.470;2022-09-17T04:02:30;96266.59;;;10.02;100.00
55271;BME280;41132;47.162;9.470;2022-09-17T04:04:56;96258.16;;;10.25;100.00
55271;BME280;41132;47.162;9.470;2022-09-17T04:07:21;96260.44;;;10.28;100.00
55271;BME280;41132;47.162;9.470;2022-09-17T04:09:46;96255.63;;;10.07;100.00
55271;BME280;41132;47.162;9.470;2022-09-17T04:12:12;96266.25;;;10.06;100.00
55271;BME280;41132;47.162;9.470;2022-09-17T04:14:37;96253.72;;;10.25;100.00
55271;BME280;41132;47.162;9.470;2022-09-17T04:17:02;96256.97;;;10.19;100.00
55271;BME280;41132;47.162;9.470;2022-09-17T04:19:28;96249.94;;;10.28;100.00
55271;BME280;41132;47.162;9.470;2022-09-17T04:21:53;96247.72;;;10.33;100.00
55271;BME280;41132;47.162;9.470;2022-09-17T04:24:19;96241.50;;;10.42;100.00
55271;BME280;41132;47.162;9.470;2022-09-17T04:26:44;96255.44;;;10.51;100.00
55271;BME280;41132;47.162;9.470;2022-09-17T04:29:09;96263.13;;;10.44;100.00
55271;BME280;41132;47.162;9.470;2022-09-17T04:31:35;96258.06;;;10.43;100.00
55271;BME280;41132;47.162;9.470;2022-09-17T04:34:00;96256.41;;;10.34;100.00
55271;BME280;41132;47.162;9.470;2022-09-17T04:36:26;96247.06;;;10.39;100.00
55271;BME280;41132;47.162;9.470;2022-09-17T04:38:51;96253.28;;;10.30;100.00
55271;BME280;41132;47.162;9.470;2022-09-17T04:41:17;96250.72;;;10.12;100.00
55271;BME280;41132;47.162;9.470;2022-09-17T04:43:42;96255.53;;;10.25;100.00
55271;BME280;41132;47.162;9.470;2022-09-17T04:46:07;96262.88;;;10.13;100.00
55271;BME280;41132;47.162;9.470;2022-09-17T04:48:33;96260.16;;;9.97;100.00
55271;BME280;41132;47.162;9.470;2022-09-17T04:50:58;96269.16;;;9.86;100.00
55271;BME280;41132;47.162;9.470;2022-09-17T04:53:24;96267.75;;;9.74;100.00
55271;BME280;41132;47.162;9.470;2022-09-17T04:55:49;96280.81;;;9.39;100.00
55271;BME280;41132;47.162;9.470;2022-09-17T04:58:15;96270.06;;;9.43;100.00
55271;BME280;41132;47.162;9.470;2022-09-17T05:00:41;96262.34;;;9.41;100.00
55271;BME280;41132;47.162;9.470;2022-09-17T05:03:06;96275.53;;;9.57;100.00
55271;BME280;41132;47.162;9.470;2022-09-17T05:05:32;96274.38;;;9.52;100.00
55271;BME280;41132;47.162;9.470;2022-09-17T05:07:57;96283.28;;;9.67;100.00
55271;BME280;41132;47.162;9.470;2022-09-17T05:10:23;96281.66;;;9.66;100.00
55271;BME280;41132;47.162;9.470;2022-09-17T05:12:54;96283.16;;;9.43;100.00
55271;BME280;41132;47.162;9.470;2022-09-17T05:15:21;96289.31;;;9.86;100.00
55271;BME280;41132;47.162;9.470;2022-09-17T05:17:47;96296.88;;;9.97;100.00
55271;BME280;41132;47.162;9.470;2022-09-17T05:20:14;96292.56;;;9.88;100.00
55271;BME280;41132;47.162;9.470;2022-09-17T05:22:48;96289.38;;;10.02;100.00
55271;BME280;41132;47.162;9.470;2022-09-17T05:25:15;96289.00;;;9.97;100.00
55271;BME280;41132;47.162;9.470;2022-09-17T05:27:41;96296.31;;;10.19;100.00
55271;BME280;41132;47.162;9.470;2022-09-17T05:30:08;96305.03;;;10.20;100.00
55271;BME280;41132;47.162;9.470;2022-09-17T05:32:35;96303.63;;;10.08;100.00
55271;BME280;41132;47.162;9.470;2022-09-17T05:35:01;96306.38;;;9.98;100.00
55271;BME280;41132;47.162;9.470;2022-09-17T05:37:27;96309.22;;;10.13;100.00
55271;BME280;41132;47.162;9.470;2022-09-17T05:39:52;96310.88;;;10.14;100.00
55271;BME280;41132;47.162;9.470;2022-09-17T05:42:17;96303.22;;;10.20;100.00
55271;BME280;41132;47.162;9.470;2022-09-17T05:44:43;96296.59;;;10.08;100.00
55271;BME280;41132;47.162;9.470;2022-09-17T05:47:08;96304.16;;;9.77;100.00
55271;BME280;41132;47.162;9.470;2022-09-17T05:49:34;96308.78;;;9.57;100.00
55271;BME280;41132;47.162;9.470;2022-09-17T05:51:59;96319.31;;;9.91;100.00
55271;BME280;41132;47.162;9.470;2022-09-17T05:54:24;96316.41;;;9.76;100.00
55271;BME280;41132;47.162;9.470;2022-09-17T05:56:53;96329.25;;;9.88;100.00
55271;BME280;41132;47.162;9.470;2022-09-17T05:59:18;96323.75;;;9.99;100.00
55271;BME280;41132;47.162;9.470;2022-09-17T06:01:44;96313.38;;;10.23;100.00
55271;BME280;41132;47.162;9.470;2022-09-17T06:04:09;96314.53;;;10.21;100.00
55271;BME280;41132;47.162;9.470;2022-09-17T06:06:35;96320.28;;;10.24;100.00
55271;BME280;41132;47.162;9.470;2022-09-17T06:09:02;96323.19;;;10.56;100.00
55271;BME280;41132;47.162;9.470;2022-09-17T06:11:27;96323.78;;;10.33;100.00
55271;BME280;41132;47.162;9.470;2022-09-17T06:13:54;96323.56;;;10.27;100.00
55271;BME280;41132;47.162;9.470;2022-09-17T06:16:21;96328.31;;;10.23;100.00
55271;BME280;41132;47.162;9.470;2022-09-17T06:18:49;96332.47;;;10.34;100.00
55271;BME280;41132;47.162;9.470;2022-09-17T06:21:17;96336.66;;;10.18;100.00
55271;BME280;41132;47.162;9.470;2022-09-17T06:23:42;96332.13;;;10.29;100.00
55271;BME280;41132;47.162;9.470;2022-09-17T06:26:08;96338.53;;;10.34;100.00
55271;BME280;41132;47.162;9.470;2022-09-17T06:28:34;96344.00;;;10.15;100.00
55271;BME280;41132;47.162;9.470;2022-09-17T06:31:03;96334.81;;;10.11;100.00
55271;BME280;41132;47.162;9.470;2022-09-17T06:33:30;96346.19;;;10.28;100.00
55271;BME280;41132;47.162;9.470;2022-09-17T06:36:00;96342.50;;;10.38;100.00
55271;BME280;41132;47.162;9.470;2022-09-17T06:38:27;96348.22;;;10.34;100.00
55271;BME280;41132;47.162;9.470;2022-09-17T06:40:53;96342.75;;;10.27;100.00
55271;BME280;41132;47.162;9.470;2022-09-17T06:43:19;96332.69;;;10.14;100.00
55271;BME280;41132;47.162;9.470;2022-09-17T06:45:59;96358.28;;;10.20;100.00
55271;BME280;41132;47.162;9.470;2022-09-17T06:48:26;96361.59;;;9.96;100.00
55271;BME280;41132;47.162;9.470;2022-09-17T06:50:52;96364.72;;;9.74;100.00
55271;BME280;41132;47.162;9.470;2022-09-17T06:53:22;96367.59;;;9.62;100.00
55271;BME280;41132;47.162;9.470;2022-09-17T06:55:48;96355.16;;;9.38;100.00
55271;BME280;41132;47.162;9.470;2022-09-17T06:58:14;96350.50;;;9.50;100.00
55271;BME280;41132;47.162;9.470;2022-09-17T07:00:39;96358.91;;;9.62;100.00
55271;BME280;41132;47.162;9.470;2022-09-17T07:03:05;96367.75;;;9.87;100.00
55271;BME280;41132;47.162;9.470;2022-09-17T07:05:30;96369.44;;;9.88;100.00
55271;BME280;41132;47.162;9.470;2022-09-17T07:08:00;96375.38;;;9.98;100.00
55271;BME280;41132;47.162;9.470;2022-09-17T07:10:26;96374.03;;;9.94;100.00
55271;BME280;41132;47.162;9.470;2022-09-17T07:12:51;96365.59;;;9.82;100.00
55271;BME280;41132;47.162;9.470;2022-09-17T07:15:17;96381.78;;;9.78;100.00
55271;BME280;41132;47.162;9.470;2022-09-17T07:17:43;96374.50;;;9.90;100.00
55271;BME280;41132;47.162;9.470;2022-09-17T07:20:10;96380.59;;;9.90;100.00
55271;BME280;41132;47.162;9.470;2022-09-17T07:22:36;96383.81;;;9.84;100.00
55271;BME280;41132;47.162;9.470;2022-09-17T07:25:01;96382.97;;;10.10;100.00
55271;BME280;41132;47.162;9.470;2022-09-17T07:27:27;96378.75;;;10.17;100.00
55271;BME280;41132;47.162;9.470;2022-09-17T07:29:53;96370.34;;;10.31;100.00
55271;BME280;41132;47.162;9.470;2022-09-17T07:32:19;96366.50;;;10.25;100.00
55271;BME280;41132;47.162;9.470;2022-09-17T07:34:44;96363.19;;;10.15;100.00
55271;BME280;41132;47.162;9.470;2022-09-17T07:37:09;96370.16;;;10.33;100.00
55271;BME280;41132;47.162;9.470;2022-09-17T07:39:35;96374.03;;;10.20;100.00
55271;BME280;41132;47.162;9.470;2022-09-17T07:42:00;96371.47;;;10.29;100.00
55271;BME280;41132;47.162;9.470;2022-09-17T07:44:27;96372.28;;;10.03;100.00
55271;BME280;41132;47.162;9.470;2022-09-17T07:46:53;96386.06;;;10.05;100.00
55271;BME280;41132;47.162;9.470;2022-09-17T07:49:18;96383.25;;;9.98;100.00
55271;BME280;41132;47.162;9.470;2022-09-17T07:51:43;96384.53;;;9.94;100.00
55271;BME280;41132;47.162;9.470;2022-09-17T07:54:13;96393.06;;;10.22;100.00
55271;BME280;41132;47.162;9.470;2022-09-17T07:56:50;96388.31;;;10.52;100.00
55271;BME280;41132;47.162;9.470;2022-09-17T07:59:21;96379.88;;;10.14;100.00
55271;BME280;41132;47.162;9.470;2022-09-17T08:02:01;96381.22;;;10.18;100.00
55271;BME280;41132;47.162;9.470;2022-09-17T08:04:49;96391.00;;;10.08;100.00
55271;BME280;41132;47.162;9.470;2022-09-17T08:07:29;96390.03;;;10.09;100.00
55271;BME280;41132;47.162;9.470;2022-09-17T08:10:20;96407.75;;;10.33;100.00
55271;BME280;41132;47.162;9.470;2022-09-17T08:12:55;96396.84;;;10.54;100.00
55271;BME280;41132;47.162;9.470;2022-09-17T08:15:24;96399.13;;;10.23;100.00
55271;BME280;41132;47.162;9.470;2022-09-17T08:17:56;96394.16;;;10.38;100.00
55271;BME280;41132;47.162;9.470;2022-09-17T08:20:39;96386.53;;;10.61;100.00
55271;BME280;41132;47.162;9.470;2022-09-17T08:23:38;96409.06;;;10.80;100.00
55271;BME280;41132;47.162;9.470;2022-09-17T08:26:16;96396.03;;;10.54;100.00
55271;BME280;41132;47.162;9.470;2022-09-17T08:29:07;96417.09;;;10.78;100.00
55271;BME280;41132;47.162;9.470;2022-09-17T08:32:00;96421.56;;;10.43;100.00
55271;BME280;41132;47.162;9.470;2022-09-17T08:34:36;96417.84;;;10.54;100.00
55271;BME280;41132;47.162;9.470;2022-09-17T08:37:10;96410.94;;;10.27;100.00
55271;BME280;41132;47.162;9.470;2022-09-17T08:39:53;96425.94;;;10.35;100.00
55271;BME280;41132;47.162;9.470;2022-09-17T08:43:00;96418.38;;;10.66;100.00
55271;BME280;41132;47.162;9.470;2022-09-17T08:45:53;96432.13;;;10.60;100.00
55271;BME280;41132;47.162;9.470;2022-09-17T08:48:36;96423.19;;;10.87;100.00
55271;BME280;41132;47.162;9.470;2022-09-17T08:51:39;96419.09;;;10.84;100.00
55271;BME280;41132;47.162;9.470;2022-09-17T08:54:22;96418.72;;;10.71;100.00
55271;BME280;41132;47.162;9.470;2022-09-17T08:57:20;96422.94;;;11.06;100.00
55271;BME280;41132;47.162;9.470;2022-09-17T09:00:07;96418.97;;;10.52;100.00
55271;BME280;41132;47.162;9.470;2022-09-17T09:03:03;96419.53;;;10.72;100.00
55271;BME280;41132;47.162;9.470;2022-09-17T09:05:43;96416.28;;;10.70;100.00
55271;BME280;41132;47.162;9.470;2022-09-17T09:08:47;96425.69;;;10.89;100.00
55271;BME280;41132;47.162;9.470;2022-09-17T09:11:24;96425.19;;;10.93;100.00
55271;BME280;41132;47.162;9.470;2022-09-17T09:14:08;96430.59;;;10.92;100.00
55271;BME280;41132;47.162;9.470;2022-09-17T09:16:48;96433.84;;;10.77;100.00
55271;BME280;41132;47.162;9.470;2022-09-17T09:19:38;96426.75;;;10.70;100.00
55271;BME280;41132;47.162;9.470;2022-09-17T09:33:31;96423.56;;;11.00;100.00
55271;BME280;41132;47.162;9.470;2022-09-17T09:36:09;96428.72;;;11.18;100.00
55271;BME280;41132;47.162;9.470;2022-09-17T09:39:01;96429.75;;;11.66;100.00
55271;BME280;41132;47.162;9.470;2022-09-17T09:41:54;96428.44;;;11.79;100.00
55271;BME280;41132;47.162;9.470;2022-09-17T09:44:37;96435.69;;;11.77;100.00
55271;BME280;41132;47.162;9.470;2022-09-17T09:47:30;96436.50;;;11.77;100.00
55271;BME280;41132;47.162;9.470;2022-09-17T09:50:28;96446.34;;;11.75;100.00
55271;BME280;41132;47.162;9.470;2022-09-17T09:53:24;96437.97;;;11.71;100.00
55271;BME280;41132;47.162;9.470;2022-09-17T09:57:04;96446.19;;;11.52;100.00
55271;BME280;41132;47.162;9.470;2022-09-17T09:59:12;96447.16;;;11.51;100.00
55271;BME280;41132;47.162;9.470;2022-09-17T10:01:59;96444.69;;;11.41;100.00
55271;BME280;41132;47.162;9.470;2022-09-17T10:04:41;96454.66;;;11.21;100.00
55271;BME280;41132;47.162;9.470;2022-09-17T10:07:18;96459.72;;;11.06;100.00
55271;BME280;41132;47.162;9.470;2022-09-17T10:09:47;96447.69;;;10.96;100.00
55271;BME280;41132;47.162;9.470;2022-09-17T10:12:29;96444.59;;;11.00;100.00
55271;BME280;41132;47.162;9.470;2022-09-17T10:15:34;96438.47;;;10.83;100.00
55271;BME280;41132;47.162;9.470;2022-09-17T10:18:20;96449.53;;;10.69;100.00
55271;BME280;41132;47.162;9.470;2022-09-17T10:20:56;96439.66;;;10.29;100.00
55271;BME280;41132;47.162;9.470;2022-09-17T10:23:29;96448.88;;;10.33;100.00
55271;BME280;41132;47.162;9.470;2022-09-17T10:26:07;96455.78;;;10.34;100.00
55271;BME280;41132;47.162;9.470;2022-09-17T10:28:55;96451.34;;;10.34;100.00
55271;BME280;41132;47.162;9.470;2022-09-17T10:31:23;96456.13;;;10.39;100.00
55271;BME280;41132;47.162;9.470;2022-09-17T10:34:01;96449.72;;;10.33;100.00
55271;BME280;41132;47.162;9.470;2022-09-17T10:36:46;96456.81;;;10.41;100.00
55271;BME280;41132;47.162;9.470;2022-09-17T10:42:12;96452.53;;;10.74;100.00
55271;BME280;41132;47.162;9.470;2022-09-17T10:44:49;96467.16;;;10.77;100.00
55271;BME280;41132;47.162;9.470;2022-09-17T10:50:15;96469.38;;;10.98;100.00
55271;BME280;41132;47.162;9.470;2022-09-17T10:52:47;96475.50;;;11.23;100.00
55271;BME280;41132;47.162;9.470;2022-09-17T11:08:57;96481.13;;;11.44;100.00
55271;BME280;41132;47.162;9.470;2022-09-17T11:17:07;96430.75;;;11.82;100.00
55271;BME280;41132;47.162;9.470;2022-09-17T11:22:40;96462.13;;;12.08;100.00
55271;BME280;41132;47.162;9.470;2022-09-17T11:34:22;96458.34;;;12.27;96.31
55271;BME280;41132;47.162;9.470;2022-09-17T11:37:37;96448.59;;;12.44;99.62
55271;BME280;41132;47.162;9.470;2022-09-17T11:42:36;96453.50;;;12.63;100.00
55271;BME280;41132;47.162;9.470;2022-09-17T11:45:34;96444.91;;;12.69;100.00
55271;BME280;41132;47.162;9.470;2022-09-17T11:48:09;96441.22;;;12.87;100.00
55271;BME280;41132;47.162;9.470;2022-09-17T11:50:55;96438.41;;;12.88;100.00
55271;BME280;41132;47.162;9.470;2022-09-17T11:55:56;96433.09;;;12.96;100.00
55271;BME280;41132;47.162;9.470;2022-09-17T11:58:40;96438.56;;;12.95;100.00
55271;BME280;41132;47.162;9.470;2022-09-17T12:01:20;96443.38;;;13.14;100.00
55271;BME280;41132;47.162;9.470;2022-09-17T12:07:04;96442.75;;;13.44;97.79
55271;BME280;41132;47.162;9.470;2022-09-17T12:09:35;96429.22;;;13.15;97.25
55271;BME280;41132;47.162;9.470;2022-09-17T12:12:09;96422.63;;;13.20;100.00
55271;BME280;41132;47.162;9.470;2022-09-17T12:14:42;96422.25;;;13.23;100.00
55271;BME280;41132;47.162;9.470;2022-09-17T12:20:38;96409.22;;;12.98;88.38
55271;BME280;41132;47.162;9.470;2022-09-17T12:23:42;96409.00;;;13.08;100.00
55271;BME280;41132;47.162;9.470;2022-09-17T12:29:04;96402.47;;;13.04;100.00
55271;BME280;41132;47.162;9.470;2022-09-17T12:37:47;96429.13;;;12.61;100.00
55271;BME280;41132;47.162;9.470;2022-09-17T12:40:36;96434.84;;;12.73;100.00
55271;BME280;41132;47.162;9.470;2022-09-17T12:51:58;96437.22;;;12.99;100.00
55271;BME280;41132;47.162;9.470;2022-09-17T13:00:57;96433.66;;;12.84;83.96
55271;BME280;41132;47.162;9.470;2022-09-17T13:07:08;96420.13;;;12.95;100.00
55271;BME280;41132;47.162;9.470;2022-09-17T13:10:24;96427.59;;;12.83;100.00
55271;BME280;41132;47.162;9.470;2022-09-17T13:12:56;96423.34;;;13.05;96.94
55271;BME280;41132;47.162;9.470;2022-09-17T13:15:40;96426.47;;;13.09;97.41
55271;BME280;41132;47.162;9.470;2022-09-17T13:18:12;96433.22;;;13.03;97.13
55271;BME280;41132;47.162;9.470;2022-09-17T13:21:05;96431.91;;;13.07;100.00
55271;BME280;41132;47.162;9.470;2022-09-17T13:23:38;96435.00;;;12.71;100.00
55271;BME280;41132;47.162;9.470;2022-09-17T13:26:05;96441.00;;;12.49;100.00
55271;BME280;41132;47.162;9.470;2022-09-17T13:28:42;96432.50;;;12.30;100.00
55271;BME280;41132;47.162;9.470;2022-09-17T13:31:09;96426.94;;;12.33;100.00
55271;BME280;41132;47.162;9.470;2022-09-17T13:33:50;96424.25;;;12.42;100.00
55271;BME280;41132;47.162;9.470;2022-09-17T13:36:36;96431.03;;;12.36;100.00
55271;BME280;41132;47.162;9.470;2022-09-17T13:39:03;96435.16;;;12.14;100.00
55271;BME280;41132;47.162;9.470;2022-09-17T13:41:34;96444.72;;;11.99;100.00
55271;BME280;41132;47.162;9.470;2022-09-17T13:44:03;96432.88;;;12.03;100.00
55271;BME280;41132;47.162;9.470;2022-09-17T13:46:31;96430.72;;;12.15;100.00
55271;BME280;41132;47.162;9.470;2022-09-17T13:49:11;96441.22;;;12.39;100.00
55271;BME280;41132;47.162;9.470;2022-09-17T13:54:08;96446.47;;;12.47;100.00
55271;BME280;41132;47.162;9.470;2022-09-17T13:56:50;96447.84;;;12.74;100.00
55271;BME280;41132;47.162;9.470;2022-09-17T13:59:32;96453.22;;;12.89;100.00
55271;BME280;41132;47.162;9.470;2022-09-17T14:05:20;96460.72;;;12.69;100.00
55271;BME280;41132;47.162;9.470;2022-09-17T14:08:29;96463.97;;;12.71;100.00
55271;BME280;41132;47.162;9.470;2022-09-17T14:11:00;96469.59;;;12.68;100.00
55271;BME280;41132;47.162;9.470;2022-09-17T14:13:38;96458.78;;;12.55;100.00
55271;BME280;41132;47.162;9.470;2022-09-17T14:16:24;96485.28;;;12.37;100.00
55271;BME280;41132;47.162;9.470;2022-09-17T14:19:02;96492.91;;;11.99;100.00
55271;BME280;41132;47.162;9.470;2022-09-17T14:21:31;96503.06;;;11.69;100.00
55271;BME280;41132;47.162;9.470;2022-09-17T14:24:02;96507.19;;;11.13;100.00
55271;BME280;41132;47.162;9.470;2022-09-17T14:26:59;96508.22;;;10.94;100.00
55271;BME280;41132;47.162;9.470;2022-09-17T14:32:07;96517.22;;;10.83;100.00
55271;BME280;41132;47.162;9.470;2022-09-17T14:34:34;96509.69;;;10.89;100.00
55271;BME280;41132;47.162;9.470;2022-09-17T14:37:00;96514.53;;;11.01;100.00
55271;BME280;41132;47.162;9.470;2022-09-17T14:39:35;96516.41;;;10.57;100.00
55271;BME280;41132;47.162;9.470;2022-09-17T14:42:10;96513.06;;;10.73;100.00
55271;BME280;41132;47.162;9.470;2022-09-17T14:44:56;96517.44;;;10.98;100.00
55271;BME280;41132;47.162;9.470;2022-09-17T14:47:24;96510.09;;;11.10;100.00
55271;BME280;41132;47.162;9.470;2022-09-17T14:50:29;96516.53;;;11.16;100.00
55271;BME280;41132;47.162;9.470;2022-09-17T14:52:56;96524.28;;;11.17;100.00
55271;BME280;41132;47.162;9.470;2022-09-17T14:55:24;96515.59;;;11.25;100.00
55271;BME280;41132;47.162;9.470;2022-09-17T14:57:58;96521.03;;;11.32;100.00
55271;BME280;41132;47.162;9.470;2022-09-17T15:00:36;96520.91;;;11.58;100.00
55271;BME280;41132;47.162;9.470;2022-09-17T15:03:02;96512.84;;;11.51;100.00
55271;BME280;41132;47.162;9.470;2022-09-17T15:05:35;96522.06;;;11.47;100.00
55271;BME280;41132;47.162;9.470;2022-09-17T15:10:51;96511.56;;;11.63;100.00
55271;BME280;41132;47.162;9.470;2022-09-17T15:13:41;96520.63;;;11.61;100.00
55271;BME280;41132;47.162;9.470;2022-09-17T15:16:12;96525.66;;;11.38;100.00
55271;BME280;41132;47.162;9.470;2022-09-17T15:18:57;96527.09;;;11.32;100.00
55271;BME280;41132;47.162;9.470;2022-09-17T15:21:42;96535.97;;;11.31;100.00
55271;BME280;41132;47.162;9.470;2022-09-17T15:30:15;96529.81;;;11.06;100.00
55271;BME280;41132;47.162;9.470;2022-09-17T15:33:09;96530.91;;;11.03;100.00
55271;BME280;41132;47.162;9.470;2022-09-17T15:35:56;96519.53;;;11.29;100.00
55271;BME280;41132;47.162;9.470;2022-09-17T15:38:29;96502.59;;;11.15;100.00
55271;BME280;41132;47.162;9.470;2022-09-17T15:43:49;96518.78;;;11.45;100.00
55271;BME280;41132;47.162;9.470;2022-09-17T15:46:29;96526.34;;;11.64;100.00
55271;BME280;41132;47.162;9.470;2022-09-17T15:49:00;96524.22;;;11.68;100.00
55271;BME280;41132;47.162;9.470;2022-09-17T15:51:29;96522.09;;;11.63;100.00
55271;BME280;41132;47.162;9.470;2022-09-17T16:14:42;96515.13;;;11.38;100.00
55271;BME280;41132;47.162;9.470;2022-09-17T16:17:41;96520.41;;;11.46;100.00